Time;durP1;ratioP1;P1;durP2;ratioP2;P2;SDS_P1;SDS_P2;PMS_P1;PMS_P2;Temp;Humidity;BMP_temperature;BMP_pressure;BME280_temperature;BME280_humidity;BME280_pressure;Samples;Min_cycle;Max_cycle;Signal;HPM_P1;HPM_P2
2022/03/28 00:00:20;;;;;;;;;;;7.80;90.40;;;7.01;67.44;98045.56;5052201;28;20695;-85
2022/03/28 00:02:46;;;;;;;;;;;7.80;90.30;;;7.06;67.86;98048.16;5048604;28;19916;-86
2022/03/28 00:05:16;;;;;;;;;;;7.80;90.40;;;7.14;67.89;98067.31;5040441;28;19969;-86
2022/03/28 00:07:43;;;;;;;;;;;7.70;90.50;;;6.90;67.86;98034.34;5068722;28;20264;-86
2022/03/28 00:10:08;;;;;;;;;;;7.70;90.60;;;7.24;68.06;98083.78;5071082;28;19920;-87
2022/03/28 00:12:35;;;;;;;;;;;7.60;90.70;;;7.24;68.07;98086.41;5069300;28;20594;-86
2022/03/28 00:15:01;;;;;;;;;;;7.70;90.80;;;7.10;68.72;98073.44;5049633;28;19934;-86
2022/03/28 00:17:27;;;;;;;;;;;7.60;90.90;;;7.05;68.83;98049.03;5046662;28;22387;-86
2022/03/28 00:19:52;;;;;;;;;;;7.60;91.00;;;6.99;69.11;98054.38;5052806;28;20258;-86
2022/03/28 00:22:18;;;;;;;;;;;7.60;91.10;;;6.76;69.52;98010.91;5050821;28;19928;-86
2022/03/28 00:24:44;;;;;;;;;;;7.60;91.20;;;7.08;70.26;98060.34;5047547;28;19971;-86
2022/03/28 00:27:09;;;;;;;;;;;7.60;91.40;;;7.10;69.99;98068.22;5052709;28;19920;-86
2022/03/28 00:29:35;;;;;;;;;;;7.50;91.40;;;6.82;70.50;98037.09;5049027;28;19917;-86
2022/03/28 00:32:00;;;;;;;;;;;7.50;91.60;;;6.77;69.95;98023.16;5033049;28;20485;-85
2022/03/28 00:34:26;;;;;;;;;;;7.50;91.50;;;6.75;69.78;98018.81;5047131;28;19924;-86
2022/03/28 00:36:52;;;;;;;;;;;7.50;91.50;;;6.90;68.71;98044.00;5066441;28;20340;-85
2022/03/28 00:39:21;;;;;;;;;;;7.50;91.20;;;7.04;68.59;98056.03;5063738;28;20049;-86
2022/03/28 00:41:51;;;;;;;;;;;7.50;91.10;;;7.03;68.70;98049.06;5052307;28;19924;-86
2022/03/28 00:44:16;;;;;;;;;;;7.50;91.10;;;6.81;68.91;98008.25;5042395;28;20463;-86
2022/03/28 00:46:43;;;;;;;;;;;7.50;91.20;;;6.89;68.81;98030.00;5048232;28;20023;-86
2022/03/28 00:49:08;;;;;;;;;;;7.50;91.30;;;6.77;69.27;98004.81;5045237;28;19916;-87
2022/03/28 00:51:35;;;;;;;;;;;7.50;91.40;;;6.99;69.20;98042.09;5081355;28;19919;-86
2022/03/28 00:54:01;;;;;;;;;;;7.40;91.50;;;6.97;69.04;98043.88;5047286;28;19923;-85
2022/03/28 00:56:27;;;;;;;;;;;7.40;91.40;;;6.33;69.14;97955.53;5049803;28;19920;-86
2022/03/28 00:58:53;;;;;;;;;;;7.40;91.30;;;6.77;69.00;98019.69;5052556;28;19926;-86
2022/03/28 01:01:18;;;;;;;;;;;7.40;91.40;;;6.67;69.75;98013.66;5051014;28;19920;-85
2022/03/28 01:03:44;;;;;;;;;;;7.40;91.60;;;6.20;69.95;97942.56;5033502;28;19931;-86
2022/03/28 01:06:10;;;;;;;;;;;7.30;91.80;;;6.43;70.12;97981.59;5050422;28;19957;-86
2022/03/28 01:08:35;;;;;;;;;;;7.30;91.90;;;6.77;71.33;98038.88;5049899;28;19924;-86
2022/03/28 01:11:09;;;;;;;;;;;7.20;92.10;;;6.45;72.12;97984.22;5055939;28;20071;-86
2022/03/28 01:13:38;;;;;;;;;;;7.20;92.40;;;6.29;72.70;97976.50;5052649;28;19962;-86
2022/03/28 01:16:05;;;;;;;;;;;7.10;92.70;;;6.49;73.54;98005.09;5054207;28;20218;-86
2022/03/28 01:18:31;;;;;;;;;;;7.10;93.00;;;6.17;74.19;97963.53;5058538;28;20397;-86
2022/03/28 01:21:01;;;;;;;;;;;7.10;93.30;;;6.36;74.17;97998.28;5034835;28;19916;-86
2022/03/28 01:23:27;;;;;;;;;;;7.00;93.30;;;6.33;73.65;97990.44;5039521;28;20314;-86
2022/03/28 01:25:54;;;;;;;;;;;7.00;93.20;;;6.40;72.74;98001.72;5035940;28;19921;-86
2022/03/28 01:28:25;;;;;;;;;;;7.00;93.00;;;6.47;71.58;98016.50;5051930;28;21151;-86
2022/03/28 01:30:51;;;;;;;;;;;7.00;92.60;;;6.29;70.40;97986.97;5052832;28;19932;-86
2022/03/28 01:33:16;;;;;;;;;;;7.00;92.20;;;6.30;69.23;97977.41;5054868;28;20385;-86
2022/03/28 01:35:44;;;;;;;;;;;7.00;91.80;;;6.21;68.70;97960.03;5074091;28;20016;-86
2022/03/28 01:38:12;;;;;;;;;;;7.10;91.70;;;6.33;69.07;97984.34;5054736;28;19924;-86
2022/03/28 01:40:43;;;;;;;;;;;7.00;91.70;;;6.38;69.09;97990.41;5060204;28;19916;-86
2022/03/28 01:43:09;;;;;;;;;;;7.00;91.80;;;6.24;69.43;97987.91;5061944;28;20078;-86
2022/03/28 01:45:35;;;;;;;;;;;6.90;91.90;;;6.41;70.44;98001.72;5060512;28;20400;-86
2022/03/28 01:48:01;;;;;;;;;;;6.90;92.30;;;6.30;70.95;97988.72;5056729;28;19947;-85
2022/03/28 01:50:27;;;;;;;;;;;6.80;92.50;;;6.03;71.16;97942.75;5061722;28;19955;-87
2022/03/28 01:52:53;;;;;;;;;;;6.80;92.60;;;5.98;71.66;97943.69;5074525;28;19924;-86
2022/03/28 01:55:19;;;;;;;;;;;6.80;92.70;;;6.13;71.81;97972.31;5043120;28;20054;-86
2022/03/28 01:57:45;;;;;;;;;;;6.80;92.80;;;5.73;71.80;97902.00;5058554;28;20259;-86
2022/03/28 02:00:18;;;;;;;;;;;6.70;92.80;;;6.02;72.41;97961.94;5054466;28;19932;-87
2022/03/28 02:02:47;;;;;;;;;;;6.70;93.00;;;6.08;72.30;97976.72;5057746;28;19916;-87
2022/03/28 02:05:16;;;;;;;;;;;6.70;93.10;;;6.03;72.50;97971.56;5058458;28;20309;-86
2022/03/28 02:07:44;;;;;;;;;;;6.60;93.20;;;6.06;72.87;97991.59;5044872;28;20266;-87
2022/03/28 02:10:13;;;;;;;;;;;6.60;93.30;;;5.99;72.94;97967.19;5058600;28;19982;-87
2022/03/28 02:12:38;;;;;;;;;;;6.60;93.40;;;5.28;73.03;97857.06;5042014;28;20458;-86
2022/03/28 02:15:06;;;;;;;;;;;6.60;93.40;;;5.82;73.60;97946.41;5048003;28;19920;-86
2022/03/28 02:17:35;;;;;;;;;;;6.50;93.60;;;5.80;74.37;97944.69;5053675;28;19924;-86
2022/03/28 02:20:02;;;;;;;;;;;6.60;93.90;;;5.75;74.95;97942.09;5046894;28;19916;-85
2022/03/28 02:22:27;;;;;;;;;;;6.50;94.00;;;5.63;75.05;97934.34;5064573;28;19931;-87
2022/03/28 02:24:53;;;;;;;;;;;6.50;94.10;;;5.84;75.46;97957.72;5060079;28;19916;-87
2022/03/28 02:27:19;;;;;;;;;;;6.50;94.40;;;5.69;75.69;97942.16;5057917;28;19920;-87
2022/03/28 02:29:44;;;;;;;;;;;6.40;94.40;;;5.74;76.11;97963.91;5053798;28;19931;-86
2022/03/28 02:32:12;;;;;;;;;;;6.40;94.60;;;5.84;75.64;97970.81;5055138;28;19923;-87
2022/03/28 02:34:38;;;;;;;;;;;6.40;94.60;;;5.59;75.81;97937.88;5055725;28;19927;-87
2022/03/28 02:37:04;;;;;;;;;;;6.30;94.70;;;5.49;75.55;97918.75;5057611;28;20329;-86
2022/03/28 02:39:30;;;;;;;;;;;6.40;94.70;;;5.16;75.26;97861.47;5056467;28;19930;-85
2022/03/28 02:41:55;;;;;;;;;;;6.30;94.60;;;5.50;74.95;97918.75;5059734;28;19928;-86
2022/03/28 02:44:21;;;;;;;;;;;6.30;94.40;;;5.42;74.94;97902.28;5040833;28;19961;-86
2022/03/28 02:46:46;;;;;;;;;;;6.30;94.60;;;5.48;74.59;97922.28;5060270;28;20426;-87
2022/03/28 02:49:13;;;;;;;;;;;6.30;94.40;;;5.62;74.15;97945.72;5043130;28;19938;-85
2022/03/28 02:51:39;;;;;;;;;;;6.30;94.30;;;5.53;74.35;97929.19;5044087;28;19923;-87
2022/03/28 02:54:05;;;;;;;;;;;6.30;94.40;;;5.22;73.95;97888.47;5077747;28;19916;-86
2022/03/28 02:56:31;;;;;;;;;;;6.30;94.30;;;5.48;74.02;97917.03;5055123;28;19923;-86
2022/03/28 02:58:56;;;;;;;;;;;6.30;94.30;;;5.41;73.66;97908.38;5056539;28;20355;-86
2022/03/28 03:01:22;;;;;;;;;;;6.30;94.20;;;5.35;73.68;97901.44;5038846;28;19920;-85
2022/03/28 03:03:48;;;;;;;;;;;6.20;94.20;;;5.32;73.65;97895.38;5074806;28;19923;-86
2022/03/28 03:06:13;;;;;;;;;;;6.20;94.20;;;5.39;73.64;97912.75;5042224;28;20018;-86
2022/03/28 03:08:39;;;;;;;;;;;6.20;94.20;;;5.16;73.75;97877.19;5055861;28;20015;-86
2022/03/28 03:11:04;;;;;;;;;;;6.20;94.30;;;5.38;74.28;97915.38;5071592;28;20301;-86
2022/03/28 03:13:30;;;;;;;;;;;6.10;94.50;;;5.51;74.94;97941.44;5037511;28;19916;-86
2022/03/28 03:15:56;;;;;;;;;;;6.10;94.70;;;5.33;75.81;97918.91;5061892;28;19958;-86
2022/03/28 03:18:21;;;;;;;;;;;6.10;95.10;;;5.15;76.50;97892.88;5060620;28;20138;-87
2022/03/28 03:20:47;;;;;;;;;;;6.00;95.40;;;5.08;76.47;97892.06;5087341;28;20399;-86
2022/03/28 03:23:12;;;;;;;;;;;6.00;95.40;;;5.07;76.50;97884.22;5041511;28;19939;-87
2022/03/28 03:25:38;;;;;;;;;;;5.90;95.50;;;5.28;76.21;97933.75;5063739;28;19916;-86
2022/03/28 03:28:04;;;;;;;;;;;5.90;95.50;;;5.02;76.52;97892.09;5072117;28;19932;-86
2022/03/28 03:30:29;;;;;;;;;;;5.90;95.60;;;4.42;77.04;97806.28;5060016;28;20378;-87
2022/03/28 03:32:55;;;;;;;;;;;5.90;95.80;;;4.88;77.31;97888.72;5073854;28;19916;-87
2022/03/28 03:35:21;;;;;;;;;;;5.80;95.90;;;5.22;77.59;97932.94;5038917;28;19924;-86
2022/03/28 03:37:46;;;;;;;;;;;5.80;96.10;;;4.83;77.82;97874.78;5049077;28;19927;-87
2022/03/28 03:40:12;;;;;;;;;;;5.80;96.10;;;4.62;77.64;97847.94;5054860;28;19952;-86
2022/03/28 03:42:38;;;;;;;;;;;5.70;96.10;;;5.08;77.33;97928.69;5078698;28;19924;-86
2022/03/28 03:45:05;;;;;;;;;;;5.70;96.10;;;4.93;77.52;97900.00;5056603;28;20392;-86
2022/03/28 03:47:31;;;;;;;;;;;5.70;96.20;;;4.90;77.70;97900.00;5074919;28;19955;-86
2022/03/28 03:49:57;;;;;;;;;;;5.70;96.30;;;5.00;77.78;97914.78;5042779;28;19947;-86
2022/03/28 03:52:22;;;;;;;;;;;5.70;96.40;;;5.04;77.27;97923.47;5053755;28;19946;-86
2022/03/28 03:54:48;;;;;;;;;;;5.70;96.30;;;4.90;77.09;97893.06;5039607;28;20419;-86
2022/03/28 03:57:17;;;;;;;;;;;5.70;96.40;;;5.06;76.41;97929.53;5061438;28;20010;-86
2022/03/28 03:59:58;;;;;;;;;;;5.60;96.10;;;4.55;75.74;97839.25;5055078;28;19916;-86
2022/03/28 04:02:29;;;;;;;;;;;5.70;95.90;;;4.57;75.36;97852.31;5059187;28;20070;-86
2022/03/28 04:05:15;;;;;;;;;;;5.70;95.70;;;4.20;75.69;97793.34;5088091;28;19924;-87
2022/03/28 04:07:41;;;;;;;;;;;5.70;95.70;;;4.42;75.70;97823.69;5085962;28;19928;-87
2022/03/28 04:10:07;;;;;;;;;;;5.70;95.80;;;4.47;76.53;97833.22;5080604;28;20102;-87
2022/03/28 04:12:33;;;;;;;;;;;5.70;96.00;;;4.89;77.26;97899.16;5059492;28;19962;-87
2022/03/28 04:15:00;;;;;;;;;;;5.70;96.30;;;4.32;77.74;97807.19;5051489;28;19935;-86
2022/03/28 04:17:28;;;;;;;;;;;5.70;96.50;;;4.80;78.19;97887.91;5062107;28;19927;-87
2022/03/28 04:19:54;;;;;;;;;;;5.60;96.70;;;4.54;79.02;97854.94;5046563;28;19916;-86
2022/03/28 04:22:26;;;;;;;;;;;5.60;97.00;;;4.77;79.26;97894.00;5062739;28;19924;-87
2022/03/28 04:24:51;;;;;;;;;;;5.50;97.10;;;4.58;79.67;97870.59;5058994;28;19920;-86
2022/03/28 04:27:17;;;;;;;;;;;5.50;97.30;;;4.77;79.50;97910.56;5043533;28;19924;-87
2022/03/28 04:29:45;;;;;;;;;;;5.50;97.30;;;4.78;79.76;97916.66;5061237;28;19923;-86
2022/03/28 04:32:12;;;;;;;;;;;5.40;97.40;;;4.28;80.01;97834.19;5056145;28;19916;-87
2022/03/28 04:34:40;;;;;;;;;;;5.40;97.50;;;4.17;80.01;97823.81;5060695;28;19923;-87
2022/03/28 04:37:11;;;;;;;;;;;5.40;97.70;;;4.12;80.19;97826.44;5074119;28;19916;-86
2022/03/28 04:39:43;;;;;;;;;;;5.30;97.80;;;4.27;80.36;97853.34;5054872;28;19927;-87
2022/03/28 04:42:19;;;;;;;;;;;5.30;97.80;;;3.68;80.27;97774.41;5039972;28;19916;-86
2022/03/28 04:44:45;;;;;;;;;;;5.30;97.90;;;3.91;80.54;97814.34;5077231;28;19947;-86
2022/03/28 04:47:17;;;;;;;;;;;5.20;98.00;;;3.98;81.12;97836.06;5060223;28;20384;-87
2022/03/28 04:49:42;;;;;;;;;;;5.10;98.20;;;3.97;81.56;97855.22;5075733;28;19916;-87
2022/03/28 04:52:08;;;;;;;;;;;5.10;98.40;;;4.28;81.79;97917.75;5052254;28;19923;-85
2022/03/28 04:54:36;;;;;;;;;;;5.00;98.60;;;4.29;82.43;97917.75;5037651;28;19920;-87
2022/03/28 04:57:06;;;;;;;;;;;5.00;98.80;;;4.09;82.45;97883.88;5057207;28;20006;-86
2022/03/28 04:59:32;;;;;;;;;;;5.00;98.90;;;4.20;82.41;97904.75;5040663;28;19916;-86
2022/03/28 05:01:58;;;;;;;;;;;5.00;99.00;;;4.15;82.71;97903.88;5059960;28;20324;-86
2022/03/28 05:04:24;;;;;;;;;;;5.00;99.00;;;4.09;82.74;97890.84;5059369;28;19998;-86
2022/03/28 05:06:50;;;;;;;;;;;4.90;99.10;;;4.11;82.64;97905.63;5058533;28;19956;-87
2022/03/28 05:09:15;;;;;;;;;;;4.90;99.10;;;3.99;82.65;97879.56;5058102;28;20404;-87
2022/03/28 05:11:41;;;;;;;;;;;4.90;99.20;;;4.24;82.66;97916.91;5079491;23;20471;-43
2022/03/28 05:14:07;;;;;;;;;;;4.90;99.30;;;4.27;82.79;97922.13;5072837;28;19971;-39
2022/03/28 05:16:33;;;;;;;;;;;4.90;99.40;;;4.29;82.84;97919.47;5076359;28;20452;-45
2022/03/28 05:18:58;;;;;;;;;;;4.90;99.40;;;4.31;82.79;97923.84;5077096;28;19916;-45
2022/03/28 05:21:24;;;;;;;;;;;5.00;99.50;;;4.27;82.84;97916.91;5060402;28;19920;-41
2022/03/28 05:23:50;;;;;;;;;;;5.00;99.50;;;4.31;82.92;97909.91;5056409;28;19936;-41
2022/03/28 05:26:15;;;;;;;;;;;5.00;99.60;;;4.38;82.77;97920.31;5054116;28;20022;-39
2022/03/28 05:28:41;;;;;;;;;;;5.00;99.60;;;4.42;82.95;97917.72;5050306;28;20174;-44
2022/03/28 05:31:07;;;;;;;;;;;5.00;99.70;;;4.45;82.54;97920.28;5051300;28;20393;-43
2022/03/28 05:33:33;;;;;;;;;;;5.10;99.70;;;4.49;81.86;97928.13;5052496;28;19960;-37
2022/03/28 05:35:59;;;;;;;;;;;5.10;99.50;;;4.53;81.16;97921.13;5053840;28;20023;-46
2022/03/28 05:38:25;;;;;;;;;;;5.20;99.20;;;4.56;80.87;97927.22;5056748;28;19932;-39
2022/03/28 05:40:50;;;;;;;;;;;5.20;99.00;;;4.62;80.41;97917.63;5041523;28;20244;-42
2022/03/28 05:43:16;;;;;;;;;;;5.20;98.90;;;4.62;79.58;97912.38;5055973;28;19916;-42
2022/03/28 05:45:42;;;;;;;;;;;5.30;98.60;;;4.75;79.09;97921.88;5033073;28;19946;-43
2022/03/28 05:48:08;;;;;;;;;;;5.40;98.40;;;4.80;79.18;97914.91;5034360;28;19938;-42
2022/03/28 05:50:34;;;;;;;;;;;5.40;98.30;;;4.85;78.16;97918.34;5055634;28;19924;-41
2022/03/28 05:52:59;;;;;;;;;;;5.50;98.10;;;4.94;77.59;97920.91;5057372;28;19925;-41
2022/03/28 05:55:25;;;;;;;;;;;5.60;97.80;;;5.02;77.30;97922.59;5042265;28;19942;-41
2022/03/28 05:57:51;;;;;;;;;;;5.60;97.60;;;5.07;76.81;97921.69;5052970;28;19932;-42
2022/03/28 06:00:16;;;;;;;;;;;5.70;97.50;;;5.15;76.71;97921.63;5056995;28;20264;-39
2022/03/28 06:02:42;;;;;;;;;;;5.70;97.40;;;5.22;75.91;97917.25;5057473;28;19924;-42
2022/03/28 06:05:08;;;;;;;;;;;5.80;97.20;;;5.31;75.48;97915.44;5057683;28;20340;-39
2022/03/28 06:07:35;;;;;;;;;;;5.90;97.00;;;5.38;75.17;97916.22;5055685;28;20370;-38
2022/03/28 06:10:00;;;;;;;;;;;6.00;96.80;;;5.47;75.01;97918.81;5055232;28;19947;-42
2022/03/28 06:12:26;;;;;;;;;;;6.00;96.80;;;5.50;75.08;97913.53;5054243;28;19924;-39
2022/03/28 06:14:52;;;;;;;;;;;6.10;96.80;;;5.61;75.12;97926.50;5055319;28;20388;-44
2022/03/28 06:17:25;;;;;;;;;;;6.20;96.80;;;5.64;74.59;97926.50;5057358;28;19959;-39
2022/03/28 06:19:51;;;;;;;;;;;6.20;96.70;;;5.71;74.17;97924.69;5037954;28;19970;-41
2022/03/28 06:22:17;;;;;;;;;;;6.30;96.50;;;5.73;73.98;97918.56;5038710;28;20286;-43
2022/03/28 06:24:43;;;;;;;;;;;6.40;96.40;;;5.86;73.87;97931.53;5057979;28;19924;-48
2022/03/28 06:27:09;;;;;;;;;;;6.40;96.30;;;5.91;72.98;97924.50;5055136;28;20373;-41
2022/03/28 06:29:35;;;;;;;;;;;6.50;96.00;;;5.83;72.64;97902.75;5050247;28;19924;-46
2022/03/28 06:32:00;;;;;;;;;;;6.60;95.80;;;6.06;72.00;97921.75;5051718;28;19927;-45
2022/03/28 06:34:26;;;;;;;;;;;6.60;95.70;;;6.14;71.00;97929.53;5052289;28;19917;-39
2022/03/28 06:36:52;;;;;;;;;;;6.70;95.50;;;6.25;70.68;97927.66;5049529;28;20034;-41
2022/03/28 06:39:17;;;;;;;;;;;6.80;95.10;;;6.35;70.31;97938.03;5054585;28;20428;-42
2022/03/28 06:41:43;;;;;;;;;;;6.90;95.00;;;6.44;70.23;97932.69;5049771;28;19924;-46
2022/03/28 06:44:11;;;;;;;;;;;7.00;95.00;;;6.49;70.00;97923.88;5049503;28;19920;-42
2022/03/28 06:46:42;;;;;;;;;;;7.10;94.90;;;6.59;70.14;97932.50;5049565;28;19924;-42
2022/03/28 06:49:08;;;;;;;;;;;7.20;94.90;;;6.68;69.85;97927.13;5046669;28;20267;-40
2022/03/28 06:51:34;;;;;;;;;;;7.30;94.90;;;6.77;69.42;97930.53;5048169;28;19931;-43
2022/03/28 06:53:59;;;;;;;;;;;7.30;94.70;;;6.86;69.02;97930.41;5057623;28;19948;-39
2022/03/28 06:56:25;;;;;;;;;;;7.40;94.50;;;6.94;69.57;97932.91;5050607;28;20373;-41
2022/03/28 06:58:52;;;;;;;;;;;7.50;94.60;;;7.02;68.93;97933.69;5049278;28;19920;-38
2022/03/28 07:01:17;;;;;;;;;;;7.50;94.50;;;7.06;69.05;97930.13;5051954;28;19976;-43
2022/03/28 07:03:43;;;;;;;;;;;7.60;94.40;;;7.11;68.76;97930.06;5053351;28;19924;-44
2022/03/28 07:06:08;;;;;;;;;;;7.70;94.40;;;7.21;68.59;97923.78;5055577;28;19916;-49
2022/03/28 07:08:35;;;;;;;;;;;7.80;94.30;;;7.26;68.90;97920.19;5049446;28;20404;-41
2022/03/28 07:11:01;;;;;;;;;;;7.80;94.40;;;7.36;68.45;97920.94;5058592;28;20397;-38
2022/03/28 07:13:27;;;;;;;;;;;7.90;94.30;;;7.45;67.88;97919.94;5055728;28;19960;-45
2022/03/28 07:15:52;;;;;;;;;;;8.00;94.10;;;7.53;67.21;97919.78;5057641;28;20011;-40
2022/03/28 07:18:19;;;;;;;;;;;8.10;93.90;;;7.63;66.04;97924.00;5056844;28;19963;-41
2022/03/28 07:20:45;;;;;;;;;;;8.20;93.40;;;7.73;65.07;97920.31;5056894;28;20204;-42
2022/03/28 07:23:12;;;;;;;;;;;8.30;93.10;;;7.83;64.52;97928.91;5055934;28;20566;-43
2022/03/28 07:25:38;;;;;;;;;;;8.30;92.90;;;7.94;63.69;97926.09;5051996;28;19928;-41
2022/03/28 07:28:08;;;;;;;;;;;8.50;92.50;;;8.04;63.59;97930.28;5055945;28;19916;-42
2022/03/28 07:30:34;;;;;;;;;;;8.60;92.50;;;8.14;63.45;97930.97;5054411;28;19916;-39
2022/03/28 07:33:02;;;;;;;;;;;8.70;92.40;;;8.18;63.04;97919.50;5056538;28;19924;-48
2022/03/28 07:35:29;;;;;;;;;;;8.80;92.20;;;8.33;62.40;97928.88;5050716;28;20073;-43
2022/03/28 07:37:55;;;;;;;;;;;8.90;92.00;;;8.42;61.57;97928.72;5055736;28;19936;-41
2022/03/28 07:40:20;;;;;;;;;;;8.90;91.70;;;8.50;61.19;97923.31;5051295;28;19928;-40
2022/03/28 07:42:48;;;;;;;;;;;9.10;91.50;;;8.57;60.69;97917.88;5055559;28;19916;-43
2022/03/28 07:45:14;;;;;;;;;;;9.10;91.30;;;8.65;59.43;97922.13;5038295;28;19917;-46
2022/03/28 07:47:41;;;;;;;;;;;9.20;90.80;;;8.78;59.10;97920.97;5054550;28;19920;-46
2022/03/28 07:50:07;;;;;;;;;;;9.30;90.70;;;8.88;58.27;97916.38;5055715;28;20437;-42
2022/03/28 07:52:34;;;;;;;;;;;9.40;90.30;;;8.91;58.21;97904.00;5057167;28;19958;-43
2022/03/28 07:55:00;;;;;;;;;;;9.50;90.20;;;9.07;57.81;97917.69;5054092;28;19925;-46
2022/03/28 07:57:26;;;;;;;;;;;9.60;90.00;;;9.19;57.16;97908.66;5052977;28;20027;-43
2022/03/28 07:59:52;;;;;;;;;;;9.70;89.60;;;9.23;56.97;97901.56;5057684;28;19927;-42
2022/03/28 08:02:18;;;;;;;;;;;9.80;89.40;;;9.44;56.61;97913.31;5054628;28;19920;-42
2022/03/28 08:04:44;;;;;;;;;;;9.90;89.10;;;9.53;55.80;97905.22;5054999;28;19924;-43
2022/03/28 08:07:11;;;;;;;;;;;10.00;88.30;;;9.65;55.59;97907.53;5056851;28;20367;-42
2022/03/28 08:09:40;;;;;;;;;;;10.20;88.00;;;9.78;54.82;97912.50;5056469;28;19924;-41
2022/03/28 08:12:06;;;;;;;;;;;10.30;87.40;;;9.86;54.52;97906.13;5055940;28;20024;-46
2022/03/28 08:14:32;;;;;;;;;;;10.40;86.90;;;10.04;53.96;97907.41;5055870;28;20126;-40
2022/03/28 08:16:58;;;;;;;;;;;10.50;86.40;;;10.16;53.50;97903.59;5057794;28;19925;-45
2022/03/28 08:19:24;;;;;;;;;;;10.60;85.80;;;10.32;53.20;97898.81;5051377;28;20430;-41
2022/03/28 08:21:50;;;;;;;;;;;10.80;85.50;;;10.47;52.89;97906.25;5055713;28;20370;-43
2022/03/28 08:24:16;;;;;;;;;;;10.90;85.20;;;10.60;52.31;97900.63;5048503;28;20401;-47
2022/03/28 08:26:42;;;;;;;;;;;11.00;84.70;;;10.73;51.82;97896.75;5046577;28;19977;-42
2022/03/28 08:29:07;;;;;;;;;;;11.10;84.30;;;10.86;51.44;97905.16;5053452;28;19944;-42
2022/03/28 08:31:33;;;;;;;;;;;11.30;83.60;;;10.98;50.76;97903.91;5049703;28;19925;-41
2022/03/28 08:33:59;;;;;;;;;;;11.40;82.80;;;11.11;49.88;97893.81;5050668;28;20423;-40
2022/03/28 08:36:24;;;;;;;;;;;11.50;81.90;;;11.24;49.48;97896.03;5051902;28;20093;-45
2022/03/28 08:38:50;;;;;;;;;;;11.60;81.40;;;11.31;47.93;97894.09;5048417;28;20421;-40
2022/03/28 08:41:18;;;;;;;;;;;11.70;79.50;;;11.43;48.17;97892.81;5054859;28;20026;-44
2022/03/28 08:43:43;;;;;;;;;;;11.80;79.30;;;11.55;48.58;97894.19;5038156;28;20294;-42
2022/03/28 08:46:09;;;;;;;;;;;12.00;79.50;;;11.65;47.36;97896.47;5050616;28;19917;-48
2022/03/28 08:48:40;;;;;;;;;;;12.00;79.40;;;11.76;47.81;97887.34;5053036;28;19920;-41
2022/03/28 08:51:11;;;;;;;;;;;12.10;78.70;;;11.85;47.65;97887.88;5055062;28;19924;-42
2022/03/28 08:53:37;;;;;;;;;;;12.20;78.50;;;12.02;47.13;97889.97;5046357;28;19977;-43
2022/03/28 08:56:03;;;;;;;;;;;12.40;78.00;;;12.16;47.21;97884.19;5050728;28;19924;-44
2022/03/28 08:58:29;;;;;;;;;;;12.50;77.80;;;12.31;46.26;97881.91;5047983;28;19936;-41
2022/03/28 09:00:55;;;;;;;;;;;12.60;76.60;;;12.45;45.97;97879.63;5049948;28;19917;-41
2022/03/28 09:03:34;;;;;;;;;;;12.80;76.40;;;12.58;45.64;97877.41;5050387;28;19920;-42
2022/03/28 09:06:00;;;;;;;;;;;12.90;75.80;;;12.65;45.68;97880.66;5052225;28;20321;-42
2022/03/28 09:08:25;;;;;;;;;;;13.00;75.40;;;12.74;45.41;97867.97;5051932;28;20008;-43
2022/03/28 09:10:51;;;;;;;;;;;13.10;75.00;;;12.88;45.70;97875.34;5054516;28;19931;-41
2022/03/28 09:13:17;;;;;;;;;;;13.20;75.50;;;13.03;45.69;97863.31;5053079;28;19916;-39
2022/03/28 09:15:55;;;;;;;;;;;13.40;75.90;;;13.20;45.91;97865.28;5052038;28;20369;-47
2022/03/28 09:18:31;;;;;;;;;;;13.50;75.90;;;13.45;43.45;97864.34;5055342;28;20277;-46
2022/03/28 09:21:06;;;;;;;;;;;13.70;73.50;;;13.60;43.51;97861.03;5052623;28;20301;-46
2022/03/28 09:23:39;;;;;;;;;;;13.80;72.70;;;13.62;44.66;97845.97;5032762;28;20357;-44
2022/03/28 09:26:26;;;;;;;;;;;14.00;73.90;;;13.67;44.47;97851.03;5052442;28;20421;-47
2022/03/28 09:28:58;;;;;;;;;;;14.00;73.80;;;13.79;43.90;97853.19;5053243;28;20393;-42
2022/03/28 09:31:26;;;;;;;;;;;14.00;73.20;;;13.79;43.19;97847.88;5045196;28;20011;-43
2022/03/28 09:34:07;;;;;;;;;;;14.10;72.00;;;13.82;43.68;97844.22;5051822;28;20361;-43
2022/03/28 09:36:37;;;;;;;;;;;14.10;72.20;;;13.91;43.24;97847.34;5050705;28;20019;-43
2022/03/28 09:39:04;;;;;;;;;;;14.20;72.10;;;13.98;43.30;97833.81;5050776;28;19916;-44
2022/03/28 09:41:30;;;;;;;;;;;14.30;71.90;;;14.04;42.92;97825.59;5034065;28;19917;-41
2022/03/28 09:43:56;;;;;;;;;;;14.40;71.50;;;14.09;43.05;97828.94;5051001;28;19921;-43
2022/03/28 09:46:29;;;;;;;;;;;14.40;71.60;;;14.14;43.15;97826.94;5051220;28;19925;-45
2022/03/28 09:48:57;;;;;;;;;;;14.50;70.80;;;14.20;42.44;97821.34;5054588;28;20351;-41
2022/03/28 09:51:26;;;;;;;;;;;14.50;70.60;;;14.26;42.30;97812.25;5050266;28;20276;-44
2022/03/28 09:53:51;;;;;;;;;;;14.50;70.30;;;14.27;41.94;97809.53;5054248;28;20297;-42
2022/03/28 09:56:17;;;;;;;;;;;14.60;69.60;;;14.33;41.32;97800.41;5054525;28;19916;-43
2022/03/28 09:58:59;;;;;;;;;;;14.60;69.30;;;14.40;41.24;97798.34;5048036;28;19924;-45
2022/03/28 10:01:35;;;;;;;;;;;14.70;68.50;;;14.50;40.91;97807.63;5050953;28;19934;-43
2022/03/28 10:04:11;;;;;;;;;;;14.80;68.10;;;14.59;40.90;97803.69;5055594;28;19954;-45
2022/03/28 10:06:38;;;;;;;;;;;14.90;67.90;;;14.66;40.66;97797.16;5052548;28;19925;-43
2022/03/28 10:09:05;;;;;;;;;;;15.00;67.50;;;14.74;40.58;97804.78;5053303;28;19932;-40
2022/03/28 10:11:31;;;;;;;;;;;15.10;67.60;;;14.79;40.25;97794.81;5052966;28;19921;-45
2022/03/28 10:13:57;;;;;;;;;;;15.10;67.00;;;14.92;39.96;97798.59;5055180;28;19924;-43
2022/03/28 10:16:23;;;;;;;;;;;15.20;66.90;;;15.02;38.68;97786.59;5051047;28;20321;-44
2022/03/28 10:18:50;;;;;;;;;;;15.30;64.50;;;15.15;39.59;97780.69;5059223;28;19925;-41
2022/03/28 10:21:31;;;;;;;;;;;15.40;65.80;;;15.39;39.30;97773.25;5058552;28;19920;-42
2022/03/28 10:24:04;;;;;;;;;;;15.50;65.90;;;15.48;38.73;97772.78;5039004;28;20058;-42
2022/03/28 10:26:35;;;;;;;;;;;15.70;64.50;;;15.62;38.52;97769.44;5037187;28;20038;-40
2022/03/28 10:29:06;;;;;;;;;;;15.90;64.10;;;15.71;38.06;97771.63;5041722;28;19917;-45
2022/03/28 10:31:34;;;;;;;;;;;16.00;64.10;;;15.76;38.23;97771.44;5053166;28;20214;-42
2022/03/28 10:34:01;;;;;;;;;;;16.00;63.30;;;15.80;37.61;97765.84;5052896;28;19959;-43
2022/03/28 10:36:32;;;;;;;;;;;16.10;62.70;;;15.86;37.98;97755.84;5056823;28;20046;-44
2022/03/28 10:39:33;;;;;;;;;;;16.10;63.20;;;15.90;38.33;97754.72;5058005;28;20031;-41
2022/03/28 10:42:14;;;;;;;;;;;16.20;63.00;;;15.94;37.81;97745.66;5058129;28;19931;-43
2022/03/28 10:44:44;;;;;;;;;;;16.20;62.60;;;15.99;36.50;97744.47;5038419;28;20242;-47
2022/03/28 10:47:10;;;;;;;;;;;16.20;60.90;;;16.18;37.16;97738.16;5053483;28;19920;-44
2022/03/28 10:49:35;;;;;;;;;;;16.30;61.60;;;16.36;35.69;97731.81;5055565;28;19931;-46
2022/03/28 10:52:02;;;;;;;;;;;16.50;60.50;;;16.54;36.56;97729.94;5040799;28;19924;-43
2022/03/28 10:54:37;;;;;;;;;;;16.70;60.50;;;16.59;36.09;97719.03;5055249;28;19935;-44
2022/03/28 10:57:04;;;;;;;;;;;16.80;59.80;;;16.72;35.52;97727.19;5038139;28;19928;-43
2022/03/28 10:59:31;;;;;;;;;;;16.90;59.00;;;16.77;35.76;97717.13;5052904;28;20625;-43
2022/03/28 11:01:57;;;;;;;;;;;17.00;59.10;;;16.92;35.68;97715.44;5054131;28;20279;-42
2022/03/28 11:04:23;;;;;;;;;;;17.10;59.30;;;16.88;34.50;97706.75;5038420;28;19953;-45
2022/03/28 11:07:05;;;;;;;;;;;17.20;57.80;;;16.83;34.91;97706.16;5056637;28;19928;-42
2022/03/28 11:09:54;;;;;;;;;;;17.10;57.60;;;16.75;34.33;97701.25;5056986;28;20455;-45
2022/03/28 11:12:29;;;;;;;;;;;17.00;57.80;;;16.69;34.47;97695.41;5036240;28;19931;-42
2022/03/28 11:15:01;;;;;;;;;;;17.00;58.40;;;16.75;33.96;97697.72;5052312;28;20417;-43
2022/03/28 11:17:31;;;;;;;;;;;17.00;56.50;;;16.84;34.66;97696.38;5049133;28;19946;-44
2022/03/28 11:19:58;;;;;;;;;;;17.10;57.60;;;17.08;33.66;97696.75;5048821;28;19917;-42
2022/03/28 11:22:42;;;;;;;;;;;17.30;56.70;;;17.14;33.20;97688.41;5050732;28;19925;-42
2022/03/28 11:25:33;;;;;;;;;;;17.40;55.60;;;17.30;33.20;97691.88;5052950;28;19920;-43
2022/03/28 11:28:10;;;;;;;;;;;17.40;55.50;;;17.26;33.08;97690.31;5055726;28;19927;-47
2022/03/28 11:31:09;;;;;;;;;;;17.50;54.60;;;17.27;32.44;97675.22;5051293;28;19931;-45